createdAt,value
2022-12-31T00:00:08.656Z,87.69
2022-12-31T00:02:35.435Z,87.50
2022-12-31T00:05:02.412Z,87.48
2022-12-31T00:07:29.157Z,88.16
2022-12-31T00:09:55.660Z,87.47
2022-12-31T00:12:22.203Z,87.76
2022-12-31T00:14:48.748Z,87.51
2022-12-31T00:17:15.366Z,87.68
2022-12-31T00:19:43.731Z,87.64
2022-12-31T00:22:10.642Z,87.88
2022-12-31T00:24:37.212Z,87.46
2022-12-31T00:27:03.844Z,87.60
2022-12-31T00:29:30.460Z,87.08
2022-12-31T00:31:57.033Z,86.89
2022-12-31T00:34:23.754Z,86.93
2022-12-31T00:36:50.639Z,87.35
2022-12-31T00:39:17.358Z,87.86
2022-12-31T00:41:44.241Z,87.63
2022-12-31T00:44:12.273Z,87.33
2022-12-31T00:49:04.784Z,88.65
2022-12-31T00:51:31.402Z,88.40
2022-12-31T00:53:58.765Z,88.64
2022-12-31T00:56:28.752Z,88.33
2022-12-31T00:58:56.113Z,87.86
2022-12-31T01:01:25.836Z,87.72
2022-12-31T01:03:55.569Z,88.07
2022-12-31T01:06:22.250Z,88.06
2022-12-31T01:08:50.300Z,87.55
2022-12-31T01:11:22.466Z,87.32
2022-12-31T01:13:49.714Z,87.84
2022-12-31T01:16:17.747Z,86.84
2022-12-31T01:18:44.399Z,86.97
2022-12-31T01:21:12.516Z,87.10
2022-12-31T01:23:39.752Z,87.41
2022-12-31T01:26:08.503Z,87.26
2022-12-31T01:28:35.993Z,87.38
2022-12-31T01:31:07.989Z,87.20
2022-12-31T01:33:35.478Z,86.95
2022-12-31T01:36:14.269Z,87.44
2022-12-31T01:38:41.644Z,87.45
2022-12-31T01:41:12.312Z,87.90
2022-12-31T01:43:54.373Z,87.58
2022-12-31T01:46:28.271Z,87.74
2022-12-31T01:49:00.268Z,87.82
2022-12-31T01:51:31.643Z,87.29
2022-12-31T01:54:00.576Z,88.22
2022-12-31T01:56:27.314Z,88.38
2022-12-31T01:58:56.836Z,88.21
2022-12-31T02:01:31.078Z,87.90
2022-12-31T02:03:58.563Z,87.96
2022-12-31T02:06:33.044Z,87.88
2022-12-31T02:09:00.217Z,88.27
2022-12-31T02:11:28.667Z,88.54
2022-12-31T02:14:05.280Z,88.27
2022-12-31T02:16:37.532Z,88.51
2022-12-31T02:19:34.909Z,88.02
2022-12-31T02:22:23.920Z,88.46
2022-12-31T02:25:08.750Z,88.57
2022-12-31T02:27:56.109Z,88.68
2022-12-31T02:30:24.796Z,89.33
2022-12-31T02:32:58.709Z,89.69
2022-12-31T02:35:40.813Z,89.31
2022-12-31T02:38:12.119Z,88.65
2022-12-31T02:40:39.368Z,89.15
2022-12-31T02:43:06.145Z,88.65
2022-12-31T02:45:41.152Z,88.16
2022-12-31T02:48:39.668Z,88.84
2022-12-31T02:51:15.656Z,88.32
2022-12-31T02:54:07.838Z,89.14
2022-12-31T02:57:04.313Z,88.81
2022-12-31T02:59:58.159Z,88.73
2022-12-31T03:02:28.156Z,88.37
2022-12-31T03:04:56.973Z,88.26
2022-12-31T03:07:29.951Z,88.71
2022-12-31T03:09:56.641Z,88.81
2022-12-31T03:12:44.422Z,88.78
2022-12-31T03:15:20.499Z,88.95
2022-12-31T03:17:55.527Z,88.11
2022-12-31T03:20:47.786Z,88.37
2022-12-31T03:23:17.881Z,88.62
2022-12-31T03:25:45.166Z,88.49
2022-12-31T03:28:16.377Z,88.56
2022-12-31T03:30:46.795Z,88.47
2022-12-31T03:33:14.220Z,89.22
2022-12-31T03:35:43.005Z,89.37
2022-12-31T03:38:09.544Z,90.02
2022-12-31T03:40:45.118Z,90.22
2022-12-31T03:43:12.453Z,90.47
2022-12-31T03:45:39.350Z,90.20
2022-12-31T03:48:08.149Z,90.56
2022-12-31T03:50:35.762Z,90.03
2022-12-31T03:53:02.586Z,90.48
2022-12-31T03:55:29.165Z,90.21
2022-12-31T03:57:55.712Z,90.10
2022-12-31T04:00:22.915Z,90.13
2022-12-31T04:02:50.767Z,90.32
2022-12-31T04:05:18.394Z,90.60
2022-12-31T04:07:45.344Z,90.69
2022-12-31T04:10:14.499Z,90.97
2022-12-31T04:12:41.188Z,90.46
2022-12-31T04:15:08.846Z,90.87
2022-12-31T04:17:35.561Z,90.70
2022-12-31T04:20:02.691Z,90.49
2022-12-31T04:22:29.387Z,90.85
2022-12-31T04:24:55.981Z,90.71
2022-12-31T04:27:22.748Z,90.71
2022-12-31T04:29:49.291Z,90.21
2022-12-31T04:32:16.001Z,90.45
2022-12-31T04:34:42.688Z,90.38
2022-12-31T04:37:09.294Z,90.10
2022-12-31T04:39:35.818Z,90.21
2022-12-31T04:42:02.469Z,90.25
2022-12-31T04:44:29.144Z,89.41
2022-12-31T04:46:55.785Z,89.85
2022-12-31T04:49:22.334Z,89.51
2022-12-31T04:51:48.986Z,89.03
2022-12-31T04:54:15.532Z,89.09
2022-12-31T04:56:42.108Z,88.94
2022-12-31T04:59:09.981Z,88.99
2022-12-31T05:01:37.213Z,89.55
2022-12-31T05:04:04.051Z,88.96
2022-12-31T05:06:30.614Z,89.65
2022-12-31T05:08:57.315Z,89.33
2022-12-31T05:11:24.025Z,89.67
2022-12-31T05:13:50.580Z,89.65
2022-12-31T05:16:17.176Z,89.46
2022-12-31T05:18:43.858Z,89.36
2022-12-31T05:21:17.952Z,89.26
2022-12-31T05:23:44.661Z,89.09
2022-12-31T05:26:11.188Z,89.47
2022-12-31T05:28:37.837Z,88.58
2022-12-31T05:31:04.596Z,89.07
2022-12-31T05:33:31.238Z,88.94
2022-12-31T05:36:00.584Z,89.17
2022-12-31T05:38:27.219Z,88.97
2022-12-31T05:41:05.852Z,89.14
2022-12-31T05:43:33.011Z,89.53
2022-12-31T05:46:04.439Z,89.17
2022-12-31T05:48:31.300Z,89.48
2022-12-31T05:50:58.190Z,89.00
2022-12-31T05:53:24.857Z,88.37
2022-12-31T05:55:51.447Z,88.40
2022-12-31T05:58:18.263Z,88.41
2022-12-31T06:00:44.972Z,88.64
2022-12-31T06:03:11.910Z,88.93
2022-12-31T06:05:43.039Z,88.55
2022-12-31T06:08:11.137Z,89.17
2022-12-31T06:10:39.099Z,88.80
2022-12-31T06:13:06.230Z,89.19
2022-12-31T06:15:39.038Z,89.01
2022-12-31T06:18:06.813Z,88.95
2022-12-31T06:20:33.852Z,89.18
2022-12-31T06:23:00.458Z,89.67
2022-12-31T06:25:27.659Z,89.76
2022-12-31T06:27:54.346Z,89.38
2022-12-31T06:30:21.016Z,88.88
2022-12-31T06:32:47.842Z,89.89
2022-12-31T06:35:14.630Z,89.68
2022-12-31T06:37:41.370Z,89.65
2022-12-31T06:40:08.605Z,89.86
2022-12-31T06:42:35.255Z,90.27
2022-12-31T06:45:01.858Z,89.99
2022-12-31T06:47:28.878Z,89.56
2022-12-31T06:49:55.388Z,90.17
2022-12-31T06:52:22.640Z,89.82
2022-12-31T06:54:49.718Z,89.56
2022-12-31T06:57:16.756Z,89.63
2022-12-31T06:59:44.830Z,89.35
2022-12-31T07:02:26.720Z,89.47
2022-12-31T07:05:06.494Z,89.66
2022-12-31T07:08:00.692Z,89.67
2022-12-31T07:10:29.644Z,89.46
2022-12-31T07:13:02.815Z,89.03
2022-12-31T07:16:00.107Z,88.68
2022-12-31T07:18:38.895Z,88.94
2022-12-31T07:21:13.570Z,89.04
2022-12-31T07:23:41.706Z,88.97
2022-12-31T07:26:36.333Z,89.13
2022-12-31T07:29:19.892Z,88.71
2022-12-31T07:31:52.495Z,88.43
2022-12-31T07:34:19.032Z,88.84
2022-12-31T07:37:04.452Z,88.71
2022-12-31T07:39:46.517Z,88.17
2022-12-31T07:42:37.081Z,88.42
2022-12-31T07:45:13.092Z,88.11
2022-12-31T07:47:39.920Z,88.17
2022-12-31T07:50:13.858Z,87.89
2022-12-31T07:52:40.740Z,87.57
2022-12-31T07:55:07.559Z,86.95
2022-12-31T07:57:38.651Z,87.15
2022-12-31T08:00:13.843Z,87.29
2022-12-31T08:03:31.293Z,86.54
2022-12-31T08:06:12.569Z,86.04
2022-12-31T08:08:58.785Z,84.83
2022-12-31T08:11:41.173Z,84.49
2022-12-31T08:14:12.161Z,81.46
2022-12-31T08:16:39.191Z,80.81
2022-12-31T08:19:06.299Z,80.18
2022-12-31T08:21:48.637Z,80.58
2022-12-31T08:24:22.739Z,80.20
2022-12-31T08:27:19.580Z,80.23
2022-12-31T08:29:49.275Z,76.37
2022-12-31T08:32:32.489Z,76.07
2022-12-31T08:35:47.101Z,74.95
2022-12-31T08:38:43.564Z,75.22
2022-12-31T08:41:20.692Z,75.58
2022-12-31T08:43:58.355Z,75.31
2022-12-31T08:46:31.373Z,75.42
2022-12-31T08:48:58.230Z,74.82
2022-12-31T08:51:26.725Z,74.70
2022-12-31T08:53:55.195Z,74.93
2022-12-31T08:56:50.642Z,75.70
2022-12-31T08:59:23.935Z,77.08
2022-12-31T09:02:07.332Z,77.13
2022-12-31T09:04:57.269Z,77.50
2022-12-31T09:07:37.259Z,77.38
2022-12-31T09:10:34.884Z,77.81
2022-12-31T09:13:23.412Z,77.08
2022-12-31T09:16:28.415Z,77.38
2022-12-31T09:18:55.043Z,78.02
2022-12-31T09:21:21.899Z,78.17
2022-12-31T09:23:48.783Z,77.69
2022-12-31T09:26:37.849Z,78.13
2022-12-31T09:29:10.296Z,77.66
2022-12-31T09:31:48.156Z,76.90
2022-12-31T09:34:33.696Z,76.83
2022-12-31T09:37:06.599Z,74.34
2022-12-31T09:39:43.998Z,74.99
2022-12-31T09:42:44.952Z,75.88
2022-12-31T09:45:41.392Z,75.21
2022-12-31T09:48:37.737Z,73.94
2022-12-31T09:51:26.453Z,73.46
2022-12-31T09:54:14.884Z,72.82
2022-12-31T09:57:08.056Z,72.64
2022-12-31T09:59:45.622Z,72.12
2022-12-31T10:02:47.397Z,72.57
2022-12-31T10:05:26.481Z,70.11
2022-12-31T10:08:27.621Z,69.93
2022-12-31T10:11:10.575Z,69.85
2022-12-31T10:13:58.492Z,70.17
2022-12-31T10:16:32.108Z,69.56
2022-12-31T10:19:13.970Z,68.29
2022-12-31T10:22:10.914Z,68.46
2022-12-31T10:24:54.466Z,67.34
2022-12-31T10:27:30.544Z,65.58
2022-12-31T10:30:13.050Z,64.88
2022-12-31T10:32:45.802Z,64.93
2022-12-31T10:35:15.027Z,62.98
2022-12-31T10:38:01.047Z,62.76
2022-12-31T10:41:10.099Z,61.00
2022-12-31T10:43:42.796Z,62.07
2022-12-31T10:46:23.234Z,61.95
2022-12-31T10:49:11.186Z,60.57
2022-12-31T10:51:56.001Z,62.11
2022-12-31T10:54:31.779Z,61.98
2022-12-31T10:57:35.955Z,60.89
2022-12-31T11:00:11.810Z,60.42
2022-12-31T11:02:53.676Z,59.53
2022-12-31T11:05:43.999Z,59.64
2022-12-31T11:08:48.174Z,59.62
2022-12-31T11:11:33.119Z,59.69
2022-12-31T11:14:08.847Z,60.21
2022-12-31T11:16:48.967Z,58.88
2022-12-31T11:19:29.059Z,59.41
2022-12-31T11:22:14.347Z,58.27
2022-12-31T11:24:59.301Z,59.45
2022-12-31T11:27:47.591Z,58.81
2022-12-31T11:30:25.181Z,60.28
2022-12-31T11:33:28.685Z,60.40
2022-12-31T11:36:13.609Z,57.96
2022-12-31T11:39:16.899Z,58.10
2022-12-31T11:41:52.118Z,57.70
2022-12-31T11:44:38.912Z,57.04
2022-12-31T11:47:05.541Z,57.03
2022-12-31T11:49:35.111Z,56.05
2022-12-31T11:52:35.508Z,56.30
2022-12-31T11:55:25.465Z,54.72
2022-12-31T11:57:53.605Z,54.00
2022-12-31T12:00:23.763Z,53.58
2022-12-31T12:02:53.981Z,53.00
2022-12-31T12:05:23.516Z,53.15
2022-12-31T12:07:51.064Z,53.38
2022-12-31T12:10:27.854Z,52.97
2022-12-31T12:12:59.477Z,53.08
2022-12-31T12:15:35.597Z,53.53
2022-12-31T12:18:09.599Z,52.73
2022-12-31T12:20:40.384Z,53.02
2022-12-31T12:23:16.763Z,52.56
2022-12-31T12:25:44.818Z,52.87
2022-12-31T12:28:18.633Z,53.06
2022-12-31T12:31:00.524Z,53.09
2022-12-31T12:33:30.040Z,52.14
2022-12-31T12:36:10.628Z,52.32
2022-12-31T12:38:37.951Z,51.79
2022-12-31T12:41:09.797Z,52.41
2022-12-31T12:43:37.791Z,51.70
2022-12-31T12:46:26.412Z,52.25
2022-12-31T12:48:58.362Z,51.70
2022-12-31T12:51:44.413Z,51.21
2022-12-31T12:54:37.202Z,51.93
2022-12-31T12:57:34.632Z,51.70
2022-12-31T13:00:23.156Z,52.92
2022-12-31T13:02:54.095Z,52.85
2022-12-31T13:05:37.950Z,53.40
2022-12-31T13:08:10.562Z,53.69
2022-12-31T13:11:15.987Z,53.66
2022-12-31T13:13:48.420Z,53.33
2022-12-31T13:16:45.910Z,54.18
2022-12-31T13:19:52.110Z,53.88
2022-12-31T13:22:48.482Z,53.70
2022-12-31T13:25:38.581Z,54.01
2022-12-31T13:28:11.103Z,53.81
2022-12-31T13:30:49.995Z,55.35
2022-12-31T13:33:19.004Z,54.78
2022-12-31T13:35:59.842Z,55.57
2022-12-31T13:38:35.035Z,55.23
2022-12-31T13:41:10.800Z,54.94
2022-12-31T13:43:50.781Z,55.20
2022-12-31T13:46:48.865Z,54.77
2022-12-31T13:49:24.122Z,59.82
2022-12-31T13:51:58.857Z,60.73
2022-12-31T13:54:51.547Z,62.85
2022-12-31T13:57:43.376Z,62.73
2022-12-31T14:00:24.300Z,62.13
2022-12-31T14:03:14.382Z,63.12
2022-12-31T14:05:49.503Z,62.68
2022-12-31T14:08:16.343Z,62.92
2022-12-31T14:10:57.666Z,63.21
2022-12-31T14:13:34.622Z,64.38
2022-12-31T14:16:16.457Z,64.32
2022-12-31T14:19:01.522Z,64.75
2022-12-31T14:21:54.926Z,64.71
2022-12-31T14:24:30.610Z,65.19
2022-12-31T14:27:03.620Z,64.84
2022-12-31T14:29:51.995Z,65.50
2022-12-31T14:32:27.247Z,65.80
2022-12-31T14:35:12.802Z,66.72
2022-12-31T14:38:14.901Z,66.84
2022-12-31T14:40:56.340Z,66.98
2022-12-31T14:44:07.452Z,67.17
2022-12-31T14:46:50.284Z,67.77
2022-12-31T14:49:39.825Z,68.69
2022-12-31T14:52:09.487Z,68.96
2022-12-31T14:54:38.034Z,68.75
2022-12-31T14:57:54.476Z,68.48
2022-12-31T15:00:38.171Z,68.93
2022-12-31T15:03:06.344Z,69.51
2022-12-31T15:05:36.229Z,68.98
2022-12-31T15:08:17.894Z,68.76
2022-12-31T15:11:02.719Z,68.20
2022-12-31T15:13:29.321Z,65.52
2022-12-31T15:16:11.149Z,61.83
2022-12-31T15:19:13.572Z,59.83
2022-12-31T15:21:56.792Z,59.24
2022-12-31T15:24:30.630Z,59.33
2022-12-31T15:27:06.585Z,59.89
2022-12-31T15:29:43.427Z,61.28
2022-12-31T15:32:19.008Z,61.40
2022-12-31T15:34:45.685Z,62.76
2022-12-31T15:37:36.310Z,64.35
2022-12-31T15:40:15.147Z,64.36
2022-12-31T15:43:09.714Z,66.13
2022-12-31T15:45:42.206Z,67.38
2022-12-31T15:49:04.235Z,68.57
2022-12-31T15:52:06.889Z,68.51
2022-12-31T15:54:41.076Z,70.55
2022-12-31T15:57:17.226Z,71.19
2022-12-31T15:59:44.821Z,72.43
2022-12-31T16:02:23.199Z,72.79
2022-12-31T16:04:50.371Z,73.09
2022-12-31T16:07:18.096Z,73.56
2022-12-31T16:09:51.288Z,74.35
2022-12-31T16:12:29.196Z,74.10
2022-12-31T16:14:59.743Z,74.87
2022-12-31T16:17:33.295Z,75.33
2022-12-31T16:20:03.037Z,75.98
2022-12-31T16:22:38.444Z,76.54
2022-12-31T16:27:54.412Z,76.92
2022-12-31T16:30:30.301Z,77.17
2022-12-31T16:33:03.172Z,77.88
2022-12-31T16:35:36.304Z,77.96
2022-12-31T16:38:16.252Z,78.34
2022-12-31T16:41:03.937Z,78.60
2022-12-31T16:43:37.918Z,78.63
2022-12-31T16:46:12.559Z,79.11
2022-12-31T16:48:39.520Z,79.73
2022-12-31T16:51:06.769Z,79.73
2022-12-31T16:53:38.077Z,79.76
2022-12-31T16:56:10.539Z,80.08
2022-12-31T16:58:42.443Z,80.41
2022-12-31T17:01:13.415Z,81.19
2022-12-31T17:03:45.650Z,81.00
2022-12-31T17:06:15.975Z,81.50
2022-12-31T17:09:00.752Z,81.79
2022-12-31T17:11:30.819Z,81.76
2022-12-31T17:14:06.735Z,81.84
2022-12-31T17:17:02.273Z,81.91
2022-12-31T17:19:38.932Z,82.55
2022-12-31T17:22:29.783Z,82.55
2022-12-31T17:25:21.862Z,82.55
2022-12-31T17:27:55.533Z,81.78
2022-12-31T17:30:42.707Z,82.65
2022-12-31T17:33:09.220Z,83.08
2022-12-31T17:35:41.911Z,82.80
2022-12-31T17:38:17.708Z,82.97
2022-12-31T17:40:51.253Z,82.85
2022-12-31T17:43:21.295Z,83.53
2022-12-31T17:45:51.357Z,83.78
2022-12-31T17:48:19.793Z,83.84
2022-12-31T17:50:54.591Z,83.52
2022-12-31T17:53:21.806Z,83.66
2022-12-31T17:55:51.275Z,84.12
2022-12-31T17:58:27.764Z,84.56
2022-12-31T18:00:57.050Z,84.31
2022-12-31T18:03:23.836Z,84.49
2022-12-31T18:05:50.800Z,84.05
2022-12-31T18:08:17.387Z,84.40
2022-12-31T18:10:44.956Z,84.52
2022-12-31T18:13:23.805Z,83.83
2022-12-31T18:15:50.768Z,83.65
2022-12-31T18:18:24.430Z,84.36
2022-12-31T18:20:54.993Z,84.44
2022-12-31T18:23:33.158Z,83.66
2022-12-31T18:25:59.788Z,84.34
2022-12-31T18:28:26.412Z,84.80
2022-12-31T18:30:53.110Z,84.56
2022-12-31T18:33:22.469Z,84.51
2022-12-31T18:36:08.137Z,84.33
2022-12-31T18:38:35.882Z,84.00
2022-12-31T18:41:02.500Z,84.51
2022-12-31T18:43:29.118Z,84.52
2022-12-31T18:45:56.183Z,84.15
2022-12-31T18:48:23.228Z,83.99
2022-12-31T18:50:50.579Z,83.83
2022-12-31T18:53:23.009Z,84.41
2022-12-31T18:55:57.390Z,84.36
2022-12-31T18:58:24.364Z,83.81
2022-12-31T19:00:51.696Z,83.96
2022-12-31T19:03:23.987Z,84.27
2022-12-31T19:05:51.835Z,84.17
2022-12-31T19:08:20.856Z,85.59
2022-12-31T19:10:49.333Z,85.00
2022-12-31T19:13:18.076Z,84.93
2022-12-31T19:15:52.092Z,84.74
2022-12-31T19:18:19.417Z,84.60
2022-12-31T19:20:46.281Z,84.61
2022-12-31T19:23:19.455Z,84.63
2022-12-31T19:25:47.662Z,84.58
2022-12-31T19:28:19.490Z,84.15
2022-12-31T19:30:46.344Z,84.73
2022-12-31T19:33:14.001Z,84.75
2022-12-31T19:35:41.583Z,84.97
2022-12-31T19:38:28.746Z,83.55
2022-12-31T19:40:55.662Z,83.97
2022-12-31T19:43:23.535Z,84.60
2022-12-31T19:45:51.625Z,84.68
2022-12-31T19:48:20.899Z,85.03
2022-12-31T19:50:53.157Z,84.64
2022-12-31T19:53:25.143Z,83.91
2022-12-31T19:55:53.283Z,85.01
2022-12-31T19:58:21.350Z,84.49
2022-12-31T20:00:55.567Z,85.45
2022-12-31T20:03:24.364Z,85.86
2022-12-31T20:05:51.543Z,84.43
2022-12-31T20:08:20.432Z,84.98
2022-12-31T20:10:47.380Z,85.00
2022-12-31T20:13:14.111Z,84.22
2022-12-31T20:15:47.681Z,84.86
2022-12-31T20:18:17.397Z,85.06
2022-12-31T20:20:53.431Z,85.24
2022-12-31T20:23:22.257Z,85.32
2022-12-31T20:25:59.226Z,84.64
2022-12-31T20:28:26.158Z,84.96
2022-12-31T20:30:53.058Z,84.06
2022-12-31T20:33:20.028Z,84.37
2022-12-31T20:35:46.647Z,84.94
2022-12-31T20:38:13.272Z,85.62
2022-12-31T20:40:46.228Z,86.29
2022-12-31T20:43:13.359Z,85.81
2022-12-31T20:45:41.310Z,87.06
2022-12-31T20:48:08.310Z,86.93
2022-12-31T20:50:35.139Z,86.07
2022-12-31T20:53:02.114Z,85.56
2022-12-31T20:55:30.747Z,85.86
2022-12-31T20:57:57.392Z,85.81
2022-12-31T21:00:23.917Z,85.09
2022-12-31T21:02:57.875Z,85.25
2022-12-31T21:05:33.794Z,85.04
2022-12-31T21:08:00.586Z,84.36
2022-12-31T21:10:27.152Z,84.39
2022-12-31T21:12:53.721Z,84.56
2022-12-31T21:15:21.644Z,85.02
2022-12-31T21:17:48.280Z,84.70
2022-12-31T21:20:14.861Z,84.06
2022-12-31T21:22:41.607Z,84.13
2022-12-31T21:25:09.892Z,84.26
2022-12-31T21:27:36.609Z,84.60
2022-12-31T21:30:19.919Z,84.27
2022-12-31T21:32:46.991Z,84.10
2022-12-31T21:38:04.964Z,84.46
2022-12-31T21:40:31.905Z,83.76
2022-12-31T21:42:58.880Z,83.62
2022-12-31T21:45:25.466Z,83.60
2022-12-31T21:48:10.595Z,83.39
2022-12-31T21:50:37.307Z,83.70
2022-12-31T21:53:03.909Z,84.06
2022-12-31T21:55:49.249Z,83.96
2022-12-31T21:58:31.761Z,83.26
2022-12-31T22:01:18.236Z,82.94
2022-12-31T22:03:45.067Z,82.76
2022-12-31T22:06:16.201Z,83.40
2022-12-31T22:08:44.529Z,82.76
2022-12-31T22:11:12.231Z,83.19
2022-12-31T22:13:39.621Z,81.91
2022-12-31T22:16:07.259Z,82.05
2022-12-31T22:18:38.594Z,82.46
2022-12-31T22:21:10.795Z,81.68
2022-12-31T22:23:41.442Z,81.61
2022-12-31T22:26:10.611Z,82.71
2022-12-31T22:28:40.431Z,82.50
2022-12-31T22:31:24.540Z,81.95
2022-12-31T22:33:51.549Z,82.40
2022-12-31T22:36:20.624Z,81.66
2022-12-31T22:38:48.037Z,82.67
2022-12-31T22:41:20.038Z,82.35
2022-12-31T22:43:48.899Z,81.64
2022-12-31T22:46:19.252Z,82.46
2022-12-31T22:48:45.906Z,82.09
2022-12-31T22:51:13.989Z,82.13
2022-12-31T22:53:41.350Z,82.21
2022-12-31T22:56:09.180Z,82.63
2022-12-31T22:58:36.473Z,82.54
2022-12-31T23:01:08.289Z,81.91
2022-12-31T23:03:35.322Z,81.79
2022-12-31T23:06:02.001Z,81.61
2022-12-31T23:08:28.623Z,81.68
2022-12-31T23:11:03.704Z,81.04
2022-12-31T23:13:55.095Z,82.20
2022-12-31T23:16:41.889Z,82.42
2022-12-31T23:19:27.600Z,82.48
2022-12-31T23:22:13.235Z,82.14
2022-12-31T23:24:39.854Z,82.83
2022-12-31T23:27:07.308Z,82.00
2022-12-31T23:29:33.882Z,82.85
2022-12-31T23:32:00.543Z,82.92
2022-12-31T23:34:27.253Z,82.36
2022-12-31T23:36:54.001Z,82.68
2022-12-31T23:39:20.732Z,83.23
2022-12-31T23:41:47.363Z,82.42
2022-12-31T23:44:13.956Z,82.66
2022-12-31T23:46:41.068Z,83.26
2022-12-31T23:49:07.746Z,83.08
2022-12-31T23:51:36.579Z,82.28
2022-12-31T23:54:07.606Z,81.73
2022-12-31T23:56:34.373Z,81.95
2022-12-31T23:59:01.068Z,81.76
